createdAt,value
2023-03-10T00:01:52.616Z,6.88
2023-03-10T00:06:56.700Z,6.43
2023-03-10T00:12:00.812Z,6.50
2023-03-10T00:17:06.738Z,6.35
2023-03-10T00:22:10.768Z,7.45
2023-03-10T00:27:14.806Z,7.60
2023-03-10T00:32:20.358Z,7.45
2023-03-10T00:37:24.764Z,8.00
2023-03-10T00:42:28.916Z,7.45
2023-03-10T00:47:34.551Z,6.80
2023-03-10T00:52:38.597Z,8.27
2023-03-10T00:57:42.643Z,6.72
2023-03-10T01:02:48.028Z,7.10
2023-03-10T01:07:52.126Z,7.97
2023-03-10T01:12:56.388Z,8.18
2023-03-10T01:18:03.613Z,8.02
2023-03-10T01:23:07.688Z,7.43
2023-03-10T01:28:12.076Z,7.95
2023-03-10T01:33:18.743Z,8.73
2023-03-10T01:38:22.834Z,8.27
2023-03-10T01:43:33.121Z,7.80
2023-03-10T01:48:39.042Z,7.38
2023-03-10T01:53:43.342Z,7.05
2023-03-10T01:58:48.459Z,7.05
2023-03-10T02:03:58.718Z,6.95
2023-03-10T02:09:05.646Z,6.63
2023-03-10T02:14:10.178Z,5.65
2023-03-10T02:19:28.281Z,5.63
2023-03-10T02:24:43.372Z,5.20
2023-03-10T02:29:59.401Z,5.65
2023-03-10T02:35:07.876Z,4.97
2023-03-10T02:40:40.750Z,5.47
2023-03-10T02:45:51.802Z,4.57
2023-03-10T02:50:57.273Z,4.45
2023-03-10T02:56:01.889Z,4.22
2023-03-10T03:01:10.255Z,4.97
2023-03-10T03:06:17.956Z,5.25
2023-03-10T03:11:23.062Z,5.43
2023-03-10T03:16:29.386Z,5.30
2023-03-10T03:21:37.784Z,5.68
2023-03-10T03:26:42.003Z,4.00
2023-03-10T03:31:53.506Z,4.15
2023-03-10T03:37:01.834Z,3.25
2023-03-10T03:42:10.937Z,2.90
2023-03-10T03:47:27.920Z,3.03
2023-03-10T03:52:33.190Z,3.17
2023-03-10T03:57:38.426Z,3.10
2023-03-10T04:02:44.560Z,2.92
2023-03-10T04:07:49.970Z,2.38
2023-03-10T04:12:59.211Z,2.40
2023-03-10T04:18:05.904Z,2.60
2023-03-10T04:23:19.020Z,2.40
2023-03-10T04:28:24.922Z,2.42
2023-03-10T04:33:30.452Z,2.88
2023-03-10T04:38:34.731Z,2.55
2023-03-10T04:43:41.351Z,2.70
2023-03-10T04:48:48.489Z,2.42
2023-03-10T04:53:53.620Z,2.37
2023-03-10T04:58:58.246Z,3.20
2023-03-10T05:04:06.696Z,2.35
2023-03-10T05:09:12.413Z,2.53
2023-03-10T05:14:18.157Z,2.65
2023-03-10T05:19:24.231Z,2.38
2023-03-10T05:24:30.027Z,2.20
2023-03-10T05:29:43.667Z,2.50
2023-03-10T05:35:12.387Z,3.28
2023-03-10T05:40:25.045Z,2.28
2023-03-10T05:45:30.173Z,2.25
2023-03-10T05:50:37.459Z,2.58
2023-03-10T05:55:48.258Z,2.65
2023-03-10T06:00:53.818Z,1.95
2023-03-10T06:06:00.023Z,2.45
2023-03-10T06:11:04.567Z,2.03
2023-03-10T06:16:09.211Z,1.05
2023-03-10T06:21:16.282Z,2.08
2023-03-10T06:31:27.094Z,1.50
2023-03-10T06:41:39.328Z,1.00
2023-03-10T06:46:47.467Z,1.50
2023-03-10T06:51:53.986Z,2.65
2023-03-10T06:56:58.134Z,3.08
2023-03-10T07:02:02.189Z,3.33
2023-03-10T07:07:08.255Z,4.72
2023-03-10T07:12:15.432Z,4.13
2023-03-10T07:17:19.962Z,4.97
2023-03-10T07:22:25.574Z,5.15
2023-03-10T07:27:30.175Z,4.22
2023-03-10T07:32:34.756Z,4.35
2023-03-10T07:37:41.556Z,4.93
2023-03-10T07:42:49.557Z,5.15
2023-03-10T07:47:55.786Z,4.03
2023-03-10T07:53:04.439Z,4.13
2023-03-10T07:58:14.059Z,3.10
2023-03-10T08:03:33.302Z,2.75
2023-03-10T08:08:51.721Z,2.23
2023-03-10T08:14:11.692Z,1.67
2023-03-10T08:19:33.371Z,1.60
2023-03-10T08:24:58.070Z,2.00
2023-03-10T08:30:02.795Z,1.67
2023-03-10T08:35:08.520Z,2.03
2023-03-10T08:40:16.179Z,1.88
2023-03-10T08:45:20.608Z,2.15
2023-03-10T08:50:24.753Z,1.73
2023-03-10T08:55:30.377Z,1.80
2023-03-10T09:00:34.458Z,1.33
2023-03-10T09:05:38.942Z,1.23
2023-03-10T09:10:46.706Z,1.45
2023-03-10T09:15:51.753Z,1.35
2023-03-10T09:20:55.897Z,1.67
2023-03-10T09:26:01.307Z,2.17
2023-03-10T09:31:06.294Z,2.15
2023-03-10T09:36:11.011Z,1.73
2023-03-10T09:41:48.162Z,1.88
2023-03-10T09:47:20.588Z,1.75
2023-03-10T09:52:30.622Z,1.38
2023-03-10T09:57:37.346Z,1.20
2023-03-10T10:02:45.664Z,1.42
2023-03-10T10:07:53.844Z,1.70
2023-03-10T10:13:05.961Z,1.42
2023-03-10T10:18:20.238Z,2.10
2023-03-10T10:23:33.729Z,1.98
2023-03-10T10:28:45.195Z,1.90
2023-03-10T10:34:01.784Z,1.58
2023-03-10T10:39:26.873Z,1.33
2023-03-10T10:44:42.815Z,1.40
2023-03-10T10:49:46.891Z,1.52
2023-03-10T10:54:58.897Z,1.63
2023-03-10T11:00:21.288Z,2.33
2023-03-10T11:05:33.787Z,2.17
2023-03-10T11:10:39.244Z,1.90
2023-03-10T11:15:53.281Z,2.03
2023-03-10T11:21:07.636Z,1.60
2023-03-10T11:26:24.380Z,1.45
2023-03-10T11:31:40.141Z,1.20
2023-03-10T11:36:56.640Z,1.98
2023-03-10T11:42:10.549Z,1.52
2023-03-10T11:47:25.918Z,2.28
2023-03-10T11:52:32.419Z,2.60
2023-03-10T11:57:45.138Z,3.30
2023-03-10T12:03:13.735Z,3.45
2023-03-10T12:08:19.385Z,3.63
2023-03-10T12:13:27.061Z,4.05
2023-03-10T12:18:32.502Z,3.78
2023-03-10T12:23:43.945Z,4.28
2023-03-10T12:28:47.940Z,4.50
2023-03-10T12:33:54.895Z,4.95
2023-03-10T12:38:59.706Z,5.10
2023-03-10T12:44:25.398Z,4.57
2023-03-10T12:49:37.623Z,3.25
2023-03-10T12:54:53.524Z,2.80
2023-03-10T13:00:05.014Z,3.20
2023-03-10T13:05:24.822Z,3.20
2023-03-10T13:10:33.605Z,2.95
2023-03-10T13:15:37.781Z,2.85
2023-03-10T13:20:43.239Z,2.20
2023-03-10T13:25:54.543Z,2.47
2023-03-10T13:31:20.113Z,1.88
2023-03-10T13:36:33.345Z,1.10
2023-03-10T13:41:43.166Z,0.75
2023-03-10T13:46:53.188Z,0.90
2023-03-10T13:52:02.052Z,1.30
2023-03-10T13:57:14.957Z,0.80
2023-03-10T14:02:21.771Z,0.68
2023-03-10T14:07:29.962Z,0.35
2023-03-10T14:12:39.092Z,0.80
2023-03-10T14:17:44.622Z,0.60
2023-03-10T14:22:50.169Z,0.90
2023-03-10T14:28:00.263Z,0.95
2023-03-10T14:33:07.596Z,1.10
2023-03-10T14:38:13.476Z,0.98
2023-03-10T14:43:20.673Z,1.27
2023-03-10T14:48:26.987Z,1.45
2023-03-10T14:53:33.513Z,1.63
2023-03-10T14:58:46.896Z,3.20
2023-03-10T15:03:51.066Z,2.70
2023-03-10T15:08:56.949Z,1.90
2023-03-10T15:14:01.161Z,1.75
2023-03-10T15:19:05.283Z,1.95
2023-03-10T15:24:10.872Z,1.95
2023-03-10T15:29:16.128Z,2.00
2023-03-10T15:34:20.786Z,2.50
2023-03-10T15:39:31.901Z,2.08
2023-03-10T15:44:36.752Z,1.73
2023-03-10T15:49:40.826Z,1.67
2023-03-10T15:54:46.292Z,2.15
2023-03-10T15:59:50.701Z,1.90
2023-03-10T16:04:55.019Z,2.10
2023-03-10T16:10:00.527Z,1.70
2023-03-10T16:15:05.196Z,1.70
2023-03-10T16:20:12.253Z,1.80
2023-03-10T16:25:21.369Z,1.90
2023-03-10T16:30:25.673Z,1.50
2023-03-10T16:35:30.435Z,1.70
2023-03-10T16:40:36.068Z,1.73
2023-03-10T16:45:40.212Z,0.75
2023-03-10T16:50:44.517Z,0.73
2023-03-10T16:55:49.941Z,0.43
2023-03-10T17:00:54.048Z,0.50
2023-03-10T17:05:58.106Z,0.57
2023-03-10T17:11:03.580Z,0.52
2023-03-10T17:16:13.285Z,0.52
2023-03-10T17:21:20.475Z,0.22
2023-03-10T17:26:26.275Z,0.20
2023-03-10T17:31:32.372Z,0.10
2023-03-10T17:36:36.547Z,0.67
2023-03-10T17:41:41.970Z,0.40
2023-03-10T17:46:46.111Z,0.20
2023-03-10T17:51:50.168Z,0.50
2023-03-10T17:56:55.532Z,0.50
2023-03-10T18:02:00.637Z,0.40
2023-03-10T18:07:05.069Z,0.40
2023-03-10T18:12:10.988Z,0.35
2023-03-10T18:17:14.995Z,0.40
2023-03-10T18:22:18.990Z,0.38
2023-03-10T18:27:24.605Z,0.30
2023-03-10T18:32:30.074Z,0.43
2023-03-10T18:37:34.673Z,0.60
2023-03-10T18:42:40.170Z,0.63
2023-03-10T18:47:46.695Z,0.32
2023-03-10T18:52:50.918Z,0.60
2023-03-10T18:57:56.544Z,0.77
2023-03-10T19:03:00.630Z,0.68
2023-03-10T19:08:04.977Z,0.65
2023-03-10T19:13:10.511Z,0.40
2023-03-10T19:18:14.614Z,0.60
2023-03-10T19:23:19.228Z,0.98
2023-03-10T19:28:24.619Z,0.60
2023-03-10T19:33:28.928Z,0.47
2023-03-10T19:38:35.171Z,0.80
2023-03-10T19:43:40.635Z,0.83
2023-03-10T19:48:45.476Z,0.57
2023-03-10T19:53:49.885Z,0.75
2023-03-10T19:58:55.441Z,0.60
2023-03-10T20:04:04.703Z,0.70
2023-03-10T20:09:10.549Z,0.70
2023-03-10T20:14:15.978Z,0.50
2023-03-10T20:19:22.830Z,0.70
2023-03-10T20:24:26.969Z,1.30
2023-03-10T20:29:32.939Z,0.60
2023-03-10T20:34:37.447Z,1.30
2023-03-10T20:39:41.512Z,1.35
2023-03-10T20:44:50.487Z,0.60
2023-03-10T20:49:55.005Z,1.00
2023-03-10T20:55:00.598Z,0.95
2023-03-10T21:00:08.555Z,0.70
2023-03-10T21:05:13.535Z,1.40
2023-03-10T21:10:17.920Z,1.17
2023-03-10T21:15:24.255Z,0.63
2023-03-10T21:20:28.522Z,0.65
2023-03-10T21:25:34.802Z,0.88
2023-03-10T21:30:40.459Z,0.63
2023-03-10T21:35:44.761Z,1.35
2023-03-10T21:40:48.939Z,1.10
2023-03-10T21:45:54.643Z,0.70
2023-03-10T21:50:58.740Z,1.05
2023-03-10T21:56:03.130Z,0.40
2023-03-10T22:01:09.395Z,0.45
2023-03-10T22:06:13.643Z,0.60
2023-03-10T22:11:18.116Z,1.02
2023-03-10T22:16:23.834Z,0.93
2023-03-10T22:21:27.871Z,0.50
2023-03-10T22:26:31.865Z,0.52
2023-03-10T22:31:37.410Z,0.85
2023-03-10T22:36:41.556Z,0.50
2023-03-10T22:41:46.030Z,0.57
2023-03-10T22:46:51.957Z,0.25
2023-03-10T22:51:56.151Z,0.30
2023-03-10T22:57:00.214Z,0.68
2023-03-10T23:02:05.759Z,0.70
2023-03-10T23:07:09.885Z,0.73
2023-03-10T23:12:13.956Z,0.63
2023-03-10T23:17:19.340Z,0.60
2023-03-10T23:22:24.204Z,0.70
2023-03-10T23:27:28.220Z,0.60
2023-03-10T23:32:33.680Z,0.82
2023-03-10T23:37:38.144Z,0.47
2023-03-10T23:42:43.736Z,0.43
2023-03-10T23:47:50.758Z,0.45
2023-03-10T23:52:55.415Z,0.65
2023-03-10T23:57:59.971Z,0.40
